sensor_id;sensor_type;location;lat;lon;timestamp;temperature;humidity
10010;DHT22;5044;48.652;9.250;2024-03-25T00:01:31;4.00;99.90
10010;DHT22;5044;48.652;9.250;2024-03-25T00:04:04;3.80;99.90
10010;DHT22;5044;48.652;9.250;2024-03-25T00:06:33;3.10;99.90
10010;DHT22;5044;48.652;9.250;2024-03-25T00:09:01;3.60;99.90
10010;DHT22;5044;48.652;9.250;2024-03-25T00:11:28;3.70;99.90
10010;DHT22;5044;48.652;9.250;2024-03-25T00:13:57;3.50;99.90
10010;DHT22;5044;48.652;9.250;2024-03-25T00:16:23;3.80;99.90
10010;DHT22;5044;48.652;9.250;2024-03-25T00:18:50;3.60;99.90
10010;DHT22;5044;48.652;9.250;2024-03-25T00:21:18;3.70;99.90
10010;DHT22;5044;48.652;9.250;2024-03-25T00:23:45;3.60;99.90
10010;DHT22;5044;48.652;9.250;2024-03-25T00:26:13;3.60;99.90
10010;DHT22;5044;48.652;9.250;2024-03-25T00:28:40;3.30;99.90
10010;DHT22;5044;48.652;9.250;2024-03-25T00:31:10;4.20;99.90
10010;DHT22;5044;48.652;9.250;2024-03-25T00:33:39;3.50;99.90
10010;DHT22;5044;48.652;9.250;2024-03-25T00:36:07;3.60;99.90
10010;DHT22;5044;48.652;9.250;2024-03-25T00:38:40;3.50;99.90
10010;DHT22;5044;48.652;9.250;2024-03-25T00:41:06;3.60;99.90
10010;DHT22;5044;48.652;9.250;2024-03-25T00:43:34;3.60;99.90
10010;DHT22;5044;48.652;9.250;2024-03-25T00:46:01;3.60;99.90
10010;DHT22;5044;48.652;9.250;2024-03-25T00:48:28;3.80;99.90
10010;DHT22;5044;48.652;9.250;2024-03-25T00:50:57;3.50;99.90
10010;DHT22;5044;48.652;9.250;2024-03-25T00:53:27;3.60;99.90
10010;DHT22;5044;48.652;9.250;2024-03-25T00:55:56;3.30;99.90
10010;DHT22;5044;48.652;9.250;2024-03-25T00:58:23;3.60;99.90
10010;DHT22;5044;48.652;9.250;2024-03-25T01:00:50;4.00;99.90
10010;DHT22;5044;48.652;9.250;2024-03-25T01:03:17;3.80;99.90
10010;DHT22;5044;48.652;9.250;2024-03-25T01:05:43;3.70;99.90
10010;DHT22;5044;48.652;9.250;2024-03-25T01:08:10;3.60;99.90
10010;DHT22;5044;48.652;9.250;2024-03-25T01:10:39;3.60;99.90
10010;DHT22;5044;48.652;9.250;2024-03-25T01:13:08;3.50;99.90
10010;DHT22;5044;48.652;9.250;2024-03-25T01:15:36;3.50;99.90
10010;DHT22;5044;48.652;9.250;2024-03-25T01:18:03;3.50;99.90
10010;DHT22;5044;48.652;9.250;2024-03-25T01:20:30;3.40;99.90
10010;DHT22;5044;48.652;9.250;2024-03-25T01:22:58;4.00;99.90
10010;DHT22;5044;48.652;9.250;2024-03-25T01:25:26;3.40;99.90
10010;DHT22;5044;48.652;9.250;2024-03-25T01:27:54;3.40;99.90
10010;DHT22;5044;48.652;9.250;2024-03-25T01:30:34;3.20;99.90
10010;DHT22;5044;48.652;9.250;2024-03-25T01:33:02;3.40;99.90
10010;DHT22;5044;48.652;9.250;2024-03-25T01:35:28;3.40;99.90
10010;DHT22;5044;48.652;9.250;2024-03-25T01:37:57;3.40;99.90
10010;DHT22;5044;48.652;9.250;2024-03-25T01:40:27;3.50;99.90
10010;DHT22;5044;48.652;9.250;2024-03-25T01:42:55;3.40;99.90
10010;DHT22;5044;48.652;9.250;2024-03-25T01:45:35;3.00;99.90
10010;DHT22;5044;48.652;9.250;2024-03-25T01:48:06;3.40;99.90
10010;DHT22;5044;48.652;9.250;2024-03-25T01:50:35;3.40;99.90
10010;DHT22;5044;48.652;9.250;2024-03-25T01:55:44;3.30;99.90
10010;DHT22;5044;48.652;9.250;2024-03-25T01:58:23;3.30;99.90
10010;DHT22;5044;48.652;9.250;2024-03-25T02:00:53;3.30;99.90
10010;DHT22;5044;48.652;9.250;2024-03-25T02:03:24;3.30;99.90
10010;DHT22;5044;48.652;9.250;2024-03-25T02:05:57;3.80;99.90
10010;DHT22;5044;48.652;9.250;2024-03-25T02:08:28;3.40;99.90
10010;DHT22;5044;48.652;9.250;2024-03-25T02:10:55;3.60;99.90
10010;DHT22;5044;48.652;9.250;2024-03-25T02:13:24;3.30;99.90
10010;DHT22;5044;48.652;9.250;2024-03-25T02:15:58;3.00;99.90
10010;DHT22;5044;48.652;9.250;2024-03-25T02:18:26;3.30;99.90
10010;DHT22;5044;48.652;9.250;2024-03-25T02:20:52;2.70;99.90
10010;DHT22;5044;48.652;9.250;2024-03-25T02:23:21;3.30;99.90
10010;DHT22;5044;48.652;9.250;2024-03-25T02:25:54;3.10;99.90
10010;DHT22;5044;48.652;9.250;2024-03-25T02:28:22;3.40;99.90
10010;DHT22;5044;48.652;9.250;2024-03-25T02:30:48;3.30;99.90
10010;DHT22;5044;48.652;9.250;2024-03-25T02:35:54;3.30;99.90
10010;DHT22;5044;48.652;9.250;2024-03-25T02:38:23;3.50;99.90
10010;DHT22;5044;48.652;9.250;2024-03-25T02:40:51;3.30;99.90
10010;DHT22;5044;48.652;9.250;2024-03-25T02:43:19;3.60;99.90
10010;DHT22;5044;48.652;9.250;2024-03-25T02:45:46;3.30;99.90
10010;DHT22;5044;48.652;9.250;2024-03-25T02:48:14;3.30;99.90
10010;DHT22;5044;48.652;9.250;2024-03-25T02:50:41;3.30;99.90
10010;DHT22;5044;48.652;9.250;2024-03-25T02:53:09;3.30;99.90
10010;DHT22;5044;48.652;9.250;2024-03-25T02:55:36;3.30;99.90
10010;DHT22;5044;48.652;9.250;2024-03-25T02:58:06;3.30;99.90
10010;DHT22;5044;48.652;9.250;2024-03-25T03:00:32;3.40;99.90
10010;DHT22;5044;48.652;9.250;2024-03-25T03:03:00;3.30;99.90
10010;DHT22;5044;48.652;9.250;2024-03-25T03:05:29;3.70;99.90
10010;DHT22;5044;48.652;9.250;2024-03-25T03:07:56;3.30;99.90
10010;DHT22;5044;48.652;9.250;2024-03-25T03:10:23;3.30;99.90
10010;DHT22;5044;48.652;9.250;2024-03-25T03:12:54;3.60;99.90
10010;DHT22;5044;48.652;9.250;2024-03-25T03:15:23;3.60;99.90
10010;DHT22;5044;48.652;9.250;2024-03-25T03:17:50;3.60;99.90
10010;DHT22;5044;48.652;9.250;2024-03-25T03:20:16;2.90;99.90
10010;DHT22;5044;48.652;9.250;2024-03-25T03:22:46;3.30;99.90
10010;DHT22;5044;48.652;9.250;2024-03-25T03:25:14;3.30;99.90
10010;DHT22;5044;48.652;9.250;2024-03-25T03:27:42;3.30;99.90
10010;DHT22;5044;48.652;9.250;2024-03-25T03:30:09;3.30;99.90
10010;DHT22;5044;48.652;9.250;2024-03-25T03:32:42;3.30;99.90
10010;DHT22;5044;48.652;9.250;2024-03-25T03:35:10;3.30;99.90
10010;DHT22;5044;48.652;9.250;2024-03-25T03:37:38;3.10;99.90
10010;DHT22;5044;48.652;9.250;2024-03-25T03:40:06;2.90;99.90
10010;DHT22;5044;48.652;9.250;2024-03-25T03:42:38;3.20;99.90
10010;DHT22;5044;48.652;9.250;2024-03-25T03:45:05;3.80;99.90
10010;DHT22;5044;48.652;9.250;2024-03-25T03:47:35;3.20;99.90
10010;DHT22;5044;48.652;9.250;2024-03-25T03:50:04;3.10;99.90
10010;DHT22;5044;48.652;9.250;2024-03-25T03:52:33;3.20;99.90
10010;DHT22;5044;48.652;9.250;2024-03-25T03:54:59;3.20;99.90
10010;DHT22;5044;48.652;9.250;2024-03-25T03:57:28;3.20;99.90
10010;DHT22;5044;48.652;9.250;2024-03-25T03:59:56;3.20;99.90
10010;DHT22;5044;48.652;9.250;2024-03-25T04:02:24;3.20;99.90
10010;DHT22;5044;48.652;9.250;2024-03-25T04:04:51;3.20;99.90
10010;DHT22;5044;48.652;9.250;2024-03-25T04:07:21;3.00;99.90
10010;DHT22;5044;48.652;9.250;2024-03-25T04:09:52;3.30;99.90
10010;DHT22;5044;48.652;9.250;2024-03-25T04:12:22;3.30;99.90
10010;DHT22;5044;48.652;9.250;2024-03-25T04:14:48;3.20;99.90
10010;DHT22;5044;48.652;9.250;2024-03-25T04:17:21;3.30;99.90
10010;DHT22;5044;48.652;9.250;2024-03-25T04:19:48;3.20;99.90
10010;DHT22;5044;48.652;9.250;2024-03-25T04:22:18;3.10;99.90
10010;DHT22;5044;48.652;9.250;2024-03-25T04:24:49;3.10;99.90
10010;DHT22;5044;48.652;9.250;2024-03-25T04:27:22;3.20;99.90
10010;DHT22;5044;48.652;9.250;2024-03-25T04:29:54;3.10;99.90
10010;DHT22;5044;48.652;9.250;2024-03-25T04:32:23;2.70;99.90
10010;DHT22;5044;48.652;9.250;2024-03-25T04:34:50;3.20;99.90
10010;DHT22;5044;48.652;9.250;2024-03-25T04:37:20;3.30;99.90
10010;DHT22;5044;48.652;9.250;2024-03-25T04:39:53;3.00;99.90
10010;DHT22;5044;48.652;9.250;2024-03-25T04:42:26;3.10;99.90
10010;DHT22;5044;48.652;9.250;2024-03-25T04:44:55;3.10;99.90
10010;DHT22;5044;48.652;9.250;2024-03-25T04:47:25;3.10;99.90
10010;DHT22;5044;48.652;9.250;2024-03-25T04:49:55;3.10;99.90
10010;DHT22;5044;48.652;9.250;2024-03-25T04:52:22;2.90;99.90
10010;DHT22;5044;48.652;9.250;2024-03-25T04:54:51;3.10;99.90
10010;DHT22;5044;48.652;9.250;2024-03-25T04:57:21;3.00;99.90
10010;DHT22;5044;48.652;9.250;2024-03-25T04:59:48;3.10;99.90
10010;DHT22;5044;48.652;9.250;2024-03-25T05:02:18;3.00;99.90
10010;DHT22;5044;48.652;9.250;2024-03-25T05:04:44;3.00;99.90
10010;DHT22;5044;48.652;9.250;2024-03-25T05:07:14;3.50;99.90
10010;DHT22;5044;48.652;9.250;2024-03-25T05:09:41;3.00;99.90
10010;DHT22;5044;48.652;9.250;2024-03-25T05:12:10;3.10;99.90
10010;DHT22;5044;48.652;9.250;2024-03-25T05:14:38;3.00;99.90
10010;DHT22;5044;48.652;9.250;2024-03-25T05:17:07;2.80;99.90
10010;DHT22;5044;48.652;9.250;2024-03-25T05:19:35;3.00;99.90
10010;DHT22;5044;48.652;9.250;2024-03-25T05:22:03;3.00;99.90
10010;DHT22;5044;48.652;9.250;2024-03-25T05:24:31;2.90;99.90
10010;DHT22;5044;48.652;9.250;2024-03-25T05:26:58;2.80;99.90
10010;DHT22;5044;48.652;9.250;2024-03-25T05:29:27;3.00;99.90
10010;DHT22;5044;48.652;9.250;2024-03-25T05:31:57;2.80;99.90
10010;DHT22;5044;48.652;9.250;2024-03-25T05:34:24;3.00;99.90
10010;DHT22;5044;48.652;9.250;2024-03-25T05:36:50;3.20;99.90
10010;DHT22;5044;48.652;9.250;2024-03-25T05:39:16;3.40;99.90
10010;DHT22;5044;48.652;9.250;2024-03-25T05:41:46;2.50;99.90
10010;DHT22;5044;48.652;9.250;2024-03-25T05:44:21;2.50;99.90
10010;DHT22;5044;48.652;9.250;2024-03-25T05:46:49;2.90;99.90
10010;DHT22;5044;48.652;9.250;2024-03-25T05:49:20;3.40;99.90
10010;DHT22;5044;48.652;9.250;2024-03-25T05:51:48;3.00;99.90
10010;DHT22;5044;48.652;9.250;2024-03-25T05:54:15;3.60;99.90
10010;DHT22;5044;48.652;9.250;2024-03-25T05:56:47;2.90;99.90
10010;DHT22;5044;48.652;9.250;2024-03-25T05:59:16;3.10;99.90
10010;DHT22;5044;48.652;9.250;2024-03-25T06:01:42;3.10;99.90
10010;DHT22;5044;48.652;9.250;2024-03-25T06:04:09;3.10;99.90
10010;DHT22;5044;48.652;9.250;2024-03-25T06:06:39;3.20;99.90
10010;DHT22;5044;48.652;9.250;2024-03-25T06:09:05;3.40;99.90
10010;DHT22;5044;48.652;9.250;2024-03-25T06:11:38;3.20;99.90
10010;DHT22;5044;48.652;9.250;2024-03-25T06:14:05;3.20;99.90
10010;DHT22;5044;48.652;9.250;2024-03-25T06:16:31;3.60;99.90
10010;DHT22;5044;48.652;9.250;2024-03-25T06:18:57;3.40;99.90
10010;DHT22;5044;48.652;9.250;2024-03-25T06:21:27;3.30;99.90
10010;DHT22;5044;48.652;9.250;2024-03-25T06:23:53;3.70;99.90
10010;DHT22;5044;48.652;9.250;2024-03-25T06:26:20;3.80;99.90
10010;DHT22;5044;48.652;9.250;2024-03-25T06:28:48;3.60;99.90
10010;DHT22;5044;48.652;9.250;2024-03-25T06:31:16;3.90;99.90
10010;DHT22;5044;48.652;9.250;2024-03-25T06:34:01;3.80;99.90
10010;DHT22;5044;48.652;9.250;2024-03-25T06:36:48;3.60;99.90
10010;DHT22;5044;48.652;9.250;2024-03-25T06:39:14;3.90;99.90
10010;DHT22;5044;48.652;9.250;2024-03-25T06:41:41;4.20;99.90
10010;DHT22;5044;48.652;9.250;2024-03-25T06:44:08;4.30;99.90
10010;DHT22;5044;48.652;9.250;2024-03-25T06:46:35;5.10;99.90
10010;DHT22;5044;48.652;9.250;2024-03-25T06:49:02;4.40;99.90
10010;DHT22;5044;48.652;9.250;2024-03-25T06:51:28;4.50;99.90
10010;DHT22;5044;48.652;9.250;2024-03-25T07:04:21;4.60;99.90
10010;DHT22;5044;48.652;9.250;2024-03-25T07:06:49;4.30;99.90
10010;DHT22;5044;48.652;9.250;2024-03-25T07:09:15;4.70;99.90
10010;DHT22;5044;48.652;9.250;2024-03-25T07:11:44;4.80;99.90
10010;DHT22;5044;48.652;9.250;2024-03-25T07:14:12;4.70;99.90
10010;DHT22;5044;48.652;9.250;2024-03-25T07:16:40;4.70;99.90
10010;DHT22;5044;48.652;9.250;2024-03-25T07:19:06;4.70;99.90
10010;DHT22;5044;48.652;9.250;2024-03-25T07:21:36;4.80;99.90
10010;DHT22;5044;48.652;9.250;2024-03-25T07:24:05;4.70;99.90
10010;DHT22;5044;48.652;9.250;2024-03-25T07:26:31;5.00;99.90
10010;DHT22;5044;48.652;9.250;2024-03-25T07:28:57;4.80;99.90
10010;DHT22;5044;48.652;9.250;2024-03-25T07:31:24;5.00;99.90
10010;DHT22;5044;48.652;9.250;2024-03-25T07:33:51;4.80;99.90
10010;DHT22;5044;48.652;9.250;2024-03-25T07:36:17;5.10;99.90
10010;DHT22;5044;48.652;9.250;2024-03-25T07:38:49;5.10;99.90
10010;DHT22;5044;48.652;9.250;2024-03-25T07:41:15;4.90;99.90
10010;DHT22;5044;48.652;9.250;2024-03-25T07:43:41;5.00;99.90
10010;DHT22;5044;48.652;9.250;2024-03-25T07:46:09;5.20;99.90
10010;DHT22;5044;48.652;9.250;2024-03-25T07:48:37;5.70;99.90
10010;DHT22;5044;48.652;9.250;2024-03-25T07:51:06;5.90;99.90
10010;DHT22;5044;48.652;9.250;2024-03-25T07:53:41;6.00;99.90
10010;DHT22;5044;48.652;9.250;2024-03-25T07:56:11;6.00;99.90
10010;DHT22;5044;48.652;9.250;2024-03-25T07:58:47;6.60;99.90
10010;DHT22;5044;48.652;9.250;2024-03-25T08:01:14;6.10;99.90
10010;DHT22;5044;48.652;9.250;2024-03-25T08:03:40;6.20;99.90
10010;DHT22;5044;48.652;9.250;2024-03-25T08:06:07;6.50;99.90
10010;DHT22;5044;48.652;9.250;2024-03-25T08:08:35;6.60;99.90
10010;DHT22;5044;48.652;9.250;2024-03-25T08:11:03;7.40;99.90
10010;DHT22;5044;48.652;9.250;2024-03-25T08:13:33;7.70;99.90
10010;DHT22;5044;48.652;9.250;2024-03-25T08:15:59;7.90;99.90
10010;DHT22;5044;48.652;9.250;2024-03-25T08:18:34;8.10;99.90
10010;DHT22;5044;48.652;9.250;2024-03-25T08:21:01;8.60;99.90
10010;DHT22;5044;48.652;9.250;2024-03-25T08:23:28;8.50;98.20
10010;DHT22;5044;48.652;9.250;2024-03-25T08:25:59;8.10;95.20
10010;DHT22;5044;48.652;9.250;2024-03-25T08:28:27;8.00;98.70
10010;DHT22;5044;48.652;9.250;2024-03-25T08:31:06;7.80;96.10
10010;DHT22;5044;48.652;9.250;2024-03-25T08:33:35;8.10;96.10
10010;DHT22;5044;48.652;9.250;2024-03-25T08:36:02;8.00;96.40
10010;DHT22;5044;48.652;9.250;2024-03-25T08:38:31;8.00;94.80
10010;DHT22;5044;48.652;9.250;2024-03-25T08:40:57;8.50;96.20
10010;DHT22;5044;48.652;9.250;2024-03-25T08:43:23;8.60;94.60
10010;DHT22;5044;48.652;9.250;2024-03-25T08:45:52;8.50;92.60
10010;DHT22;5044;48.652;9.250;2024-03-25T08:48:24;8.70;94.50
10010;DHT22;5044;48.652;9.250;2024-03-25T08:50:53;9.10;87.50
10010;DHT22;5044;48.652;9.250;2024-03-25T08:53:20;8.70;85.00
10010;DHT22;5044;48.652;9.250;2024-03-25T08:55:48;9.00;86.20
10010;DHT22;5044;48.652;9.250;2024-03-25T08:58:16;9.00;80.50
10010;DHT22;5044;48.652;9.250;2024-03-25T09:00:43;9.20;83.00
10010;DHT22;5044;48.652;9.250;2024-03-25T09:03:09;9.60;87.20
10010;DHT22;5044;48.652;9.250;2024-03-25T09:05:38;9.70;86.30
10010;DHT22;5044;48.652;9.250;2024-03-25T09:08:05;9.50;85.60
10010;DHT22;5044;48.652;9.250;2024-03-25T09:10:32;9.90;78.60
10010;DHT22;5044;48.652;9.250;2024-03-25T09:13:16;9.30;79.70
10010;DHT22;5044;48.652;9.250;2024-03-25T09:15:43;8.90;80.70
10010;DHT22;5044;48.652;9.250;2024-03-25T09:18:09;8.60;80.20
10010;DHT22;5044;48.652;9.250;2024-03-25T09:20:37;9.00;84.60
10010;DHT22;5044;48.652;9.250;2024-03-25T09:23:08;9.20;77.20
10010;DHT22;5044;48.652;9.250;2024-03-25T09:25:34;9.00;78.40
10010;DHT22;5044;48.652;9.250;2024-03-25T09:28:00;9.40;85.30
10010;DHT22;5044;48.652;9.250;2024-03-25T09:30:27;9.40;78.70
10010;DHT22;5044;48.652;9.250;2024-03-25T09:32:54;9.00;75.20
10010;DHT22;5044;48.652;9.250;2024-03-25T09:35:20;9.80;83.10
10010;DHT22;5044;48.652;9.250;2024-03-25T09:37:47;10.10;85.50
10010;DHT22;5044;48.652;9.250;2024-03-25T09:40:14;10.50;77.90
10010;DHT22;5044;48.652;9.250;2024-03-25T09:42:45;9.40;71.10
10010;DHT22;5044;48.652;9.250;2024-03-25T09:45:17;9.80;89.70
10010;DHT22;5044;48.652;9.250;2024-03-25T09:47:45;10.90;69.70
10010;DHT22;5044;48.652;9.250;2024-03-25T09:50:13;10.60;71.40
10010;DHT22;5044;48.652;9.250;2024-03-25T09:52:39;10.40;65.40
10010;DHT22;5044;48.652;9.250;2024-03-25T09:55:08;10.60;68.50
10010;DHT22;5044;48.652;9.250;2024-03-25T09:57:34;11.50;75.50
10010;DHT22;5044;48.652;9.250;2024-03-25T10:00:01;11.60;69.00
10010;DHT22;5044;48.652;9.250;2024-03-25T10:02:29;11.20;70.80
10010;DHT22;5044;48.652;9.250;2024-03-25T10:04:57;11.90;66.00
10010;DHT22;5044;48.652;9.250;2024-03-25T10:07:24;10.60;61.30
10010;DHT22;5044;48.652;9.250;2024-03-25T10:09:51;10.20;63.70
10010;DHT22;5044;48.652;9.250;2024-03-25T10:12:19;10.10;64.60
10010;DHT22;5044;48.652;9.250;2024-03-25T20:08:41;6.20;90.30
10010;DHT22;5044;48.652;9.250;2024-03-25T20:11:07;6.90;90.00
10010;DHT22;5044;48.652;9.250;2024-03-25T20:13:34;6.10;87.10
10010;DHT22;5044;48.652;9.250;2024-03-25T20:16:00;6.10;90.50
10010;DHT22;5044;48.652;9.250;2024-03-25T20:18:31;6.00;88.70
10010;DHT22;5044;48.652;9.250;2024-03-25T20:21:12;5.90;89.70
10010;DHT22;5044;48.652;9.250;2024-03-25T20:27:07;5.70;90.20
10010;DHT22;5044;48.652;9.250;2024-03-25T20:29:34;5.70;90.30
10010;DHT22;5044;48.652;9.250;2024-03-25T20:32:01;5.80;92.20
10010;DHT22;5044;48.652;9.250;2024-03-25T20:34:27;5.80;90.30
10010;DHT22;5044;48.652;9.250;2024-03-25T20:36:53;5.70;89.40
10010;DHT22;5044;48.652;9.250;2024-03-25T20:39:20;5.80;90.80
10010;DHT22;5044;48.652;9.250;2024-03-25T20:41:46;5.60;90.20
10010;DHT22;5044;48.652;9.250;2024-03-25T20:44:31;5.50;89.40
10010;DHT22;5044;48.652;9.250;2024-03-25T20:46:59;5.50;90.00
10010;DHT22;5044;48.652;9.250;2024-03-25T20:49:26;5.40;86.70
10010;DHT22;5044;48.652;9.250;2024-03-25T20:52:29;5.40;91.00
10010;DHT22;5044;48.652;9.250;2024-03-25T20:55:26;5.50;88.40
10010;DHT22;5044;48.652;9.250;2024-03-25T20:57:52;5.40;90.10
10010;DHT22;5044;48.652;9.250;2024-03-25T21:00:22;5.40;86.40
10010;DHT22;5044;48.652;9.250;2024-03-25T21:02:48;5.40;90.80
10010;DHT22;5044;48.652;9.250;2024-03-25T21:05:15;5.40;90.40
10010;DHT22;5044;48.652;9.250;2024-03-25T21:07:43;5.40;86.10
10010;DHT22;5044;48.652;9.250;2024-03-25T21:10:10;5.40;88.30
10010;DHT22;5044;48.652;9.250;2024-03-25T21:12:36;5.40;90.00
10010;DHT22;5044;48.652;9.250;2024-03-25T21:15:02;5.40;91.10
10010;DHT22;5044;48.652;9.250;2024-03-25T21:17:31;5.50;87.70
10010;DHT22;5044;48.652;9.250;2024-03-25T21:19:59;5.60;86.40
10010;DHT22;5044;48.652;9.250;2024-03-25T21:22:27;5.40;88.30
10010;DHT22;5044;48.652;9.250;2024-03-25T21:24:53;5.40;85.60
10010;DHT22;5044;48.652;9.250;2024-03-25T21:27:20;5.40;88.40
10010;DHT22;5044;48.652;9.250;2024-03-25T21:29:46;5.30;87.60
10010;DHT22;5044;48.652;9.250;2024-03-25T21:32:14;5.30;87.40
10010;DHT22;5044;48.652;9.250;2024-03-25T21:34:46;5.30;88.60
10010;DHT22;5044;48.652;9.250;2024-03-25T21:37:16;5.50;89.70
10010;DHT22;5044;48.652;9.250;2024-03-25T21:39:42;5.30;86.70
10010;DHT22;5044;48.652;9.250;2024-03-25T21:42:09;5.20;90.20
10010;DHT22;5044;48.652;9.250;2024-03-25T21:44:35;5.00;91.20
10010;DHT22;5044;48.652;9.250;2024-03-25T21:47:01;5.20;90.30
10010;DHT22;5044;48.652;9.250;2024-03-25T21:49:28;5.20;90.00
10010;DHT22;5044;48.652;9.250;2024-03-25T21:51:56;5.20;89.40
10010;DHT22;5044;48.652;9.250;2024-03-25T21:54:22;5.10;91.40
10010;DHT22;5044;48.652;9.250;2024-03-25T21:56:48;5.10;90.70
10010;DHT22;5044;48.652;9.250;2024-03-25T21:59:14;5.10;90.80
10010;DHT22;5044;48.652;9.250;2024-03-25T22:01:41;5.00;88.00
10010;DHT22;5044;48.652;9.250;2024-03-25T22:04:07;4.90;90.40
10010;DHT22;5044;48.652;9.250;2024-03-25T22:06:34;5.00;91.10
10010;DHT22;5044;48.652;9.250;2024-03-25T22:09:01;5.00;91.10
10010;DHT22;5044;48.652;9.250;2024-03-25T22:11:28;5.00;91.10
10010;DHT22;5044;48.652;9.250;2024-03-25T22:13:54;5.00;91.00
10010;DHT22;5044;48.652;9.250;2024-03-25T22:16:20;4.90;92.20
10010;DHT22;5044;48.652;9.250;2024-03-25T22:18:49;4.80;91.00
10010;DHT22;5044;48.652;9.250;2024-03-25T22:21:15;4.80;89.50
10010;DHT22;5044;48.652;9.250;2024-03-25T22:23:41;4.80;89.30
10010;DHT22;5044;48.652;9.250;2024-03-25T22:26:09;4.70;90.00
10010;DHT22;5044;48.652;9.250;2024-03-25T22:28:36;4.70;91.70
10010;DHT22;5044;48.652;9.250;2024-03-25T22:31:02;4.70;91.90
10010;DHT22;5044;48.652;9.250;2024-03-25T22:33:30;4.70;90.70
10010;DHT22;5044;48.652;9.250;2024-03-25T22:35:56;4.60;90.90
10010;DHT22;5044;48.652;9.250;2024-03-25T22:38:26;4.70;92.60
10010;DHT22;5044;48.652;9.250;2024-03-25T22:40:54;4.50;89.80
10010;DHT22;5044;48.652;9.250;2024-03-25T23:18:01;4.30;91.10
10010;DHT22;5044;48.652;9.250;2024-03-25T23:20:43;4.10;92.10
10010;DHT22;5044;48.652;9.250;2024-03-25T23:23:24;4.10;92.30
10010;DHT22;5044;48.652;9.250;2024-03-25T23:26:06;4.10;92.10
10010;DHT22;5044;48.652;9.250;2024-03-25T23:28:48;4.00;93.00
10010;DHT22;5044;48.652;9.250;2024-03-25T23:31:29;4.00;92.50
10010;DHT22;5044;48.652;9.250;2024-03-25T23:34:04;4.00;93.40
10010;DHT22;5044;48.652;9.250;2024-03-25T23:36:31;4.00;92.30
10010;DHT22;5044;48.652;9.250;2024-03-25T23:39:15;4.00;92.30
10010;DHT22;5044;48.652;9.250;2024-03-25T23:41:42;4.50;93.20
10010;DHT22;5044;48.652;9.250;2024-03-25T23:44:10;4.00;93.00
10010;DHT22;5044;48.652;9.250;2024-03-25T23:46:51;4.00;94.20
10010;DHT22;5044;48.652;9.250;2024-03-25T23:49:19;3.90;94.80
10010;DHT22;5044;48.652;9.250;2024-03-25T23:51:45;3.90;95.20
10010;DHT22;5044;48.652;9.250;2024-03-25T23:54:11;4.20;95.40
10010;DHT22;5044;48.652;9.250;2024-03-25T23:56:38;3.90;95.10
10010;DHT22;5044;48.652;9.250;2024-03-25T23:59:05;3.90;94.80
